createdAt,value
2023-05-10T00:01:04.199Z,97367.03
2023-05-10T00:03:35.332Z,97369.53
2023-05-10T00:06:06.236Z,97371.38
2023-05-10T00:08:42.216Z,97372.53
2023-05-10T00:11:13.041Z,97363.25
2023-05-10T00:13:43.979Z,97363.38
2023-05-10T00:16:15.049Z,97364.38
2023-05-10T00:18:45.955Z,97360.56
2023-05-10T00:21:16.779Z,97362.03
2023-05-10T00:23:50.195Z,97355.91
2023-05-10T00:26:21.287Z,97354.41
2023-05-10T00:28:56.104Z,97354.06
2023-05-10T00:31:27.052Z,97357.72
2023-05-10T00:33:57.984Z,97355.38
2023-05-10T00:36:29.006Z,97354.53
2023-05-10T00:39:02.431Z,97339.88
2023-05-10T00:41:33.760Z,97347.00
2023-05-10T00:44:06.006Z,97347.47
2023-05-10T00:46:37.478Z,97345.47
2023-05-10T00:49:08.536Z,97348.03
2023-05-10T00:51:39.289Z,97347.41
2023-05-10T00:54:13.426Z,97342.25
2023-05-10T00:56:44.988Z,97344.28
2023-05-10T00:59:15.901Z,97340.66
2023-05-10T01:01:46.807Z,97340.84
2023-05-10T01:04:18.669Z,97337.34
2023-05-10T01:06:49.378Z,97342.63
2023-05-10T01:09:24.723Z,97342.56
2023-05-10T01:11:55.565Z,97340.97
2023-05-10T01:14:27.316Z,97334.97
2023-05-10T01:16:59.056Z,97330.03
2023-05-10T01:19:32.235Z,97332.00
2023-05-10T01:22:09.764Z,97331.69
2023-05-10T01:25:15.423Z,97329.69
2023-05-10T01:28:21.914Z,97327.56
2023-05-10T01:31:11.064Z,97336.47
2023-05-10T01:33:51.499Z,97329.63
2023-05-10T01:36:30.917Z,97336.28
2023-05-10T01:39:06.371Z,97332.94
2023-05-10T01:41:40.512Z,97330.97
2023-05-10T01:44:20.337Z,97330.09
2023-05-10T01:46:57.583Z,97339.41
2023-05-10T01:49:35.570Z,97333.59
2023-05-10T01:52:12.902Z,97334.94
2023-05-10T01:54:48.919Z,97334.41
2023-05-10T01:57:23.438Z,97343.47
2023-05-10T01:59:56.345Z,97339.25
2023-05-10T02:02:29.067Z,97328.09
2023-05-10T02:05:03.689Z,97330.91
2023-05-10T02:07:37.491Z,97324.44
2023-05-10T02:10:10.297Z,97325.28
2023-05-10T02:12:45.743Z,97329.28
2023-05-10T02:15:20.640Z,97323.00
2023-05-10T02:17:52.053Z,97322.53
2023-05-10T02:20:27.659Z,97320.88
2023-05-10T02:22:59.990Z,97325.84
2023-05-10T02:25:32.926Z,97324.34
2023-05-10T02:28:06.027Z,97319.97
2023-05-10T02:30:37.880Z,97305.94
2023-05-10T02:33:09.512Z,97315.19
2023-05-10T02:35:42.945Z,97309.22
2023-05-10T02:38:15.856Z,97309.03
2023-05-10T02:40:47.563Z,97310.72
2023-05-10T02:43:21.407Z,97301.72
2023-05-10T02:45:52.539Z,97314.34
2023-05-10T02:48:23.444Z,97318.28
2023-05-10T02:51:00.198Z,97312.56
2023-05-10T02:53:36.056Z,97316.56
2023-05-10T02:56:13.467Z,97315.91
2023-05-10T02:58:44.392Z,97313.31
2023-05-10T03:01:15.253Z,97313.47
2023-05-10T03:03:46.101Z,97311.59
2023-05-10T03:06:19.838Z,97321.63
2023-05-10T03:08:50.924Z,97317.66
2023-05-10T03:11:33.021Z,97315.84
2023-05-10T03:14:17.165Z,97312.03
2023-05-10T03:16:51.732Z,97325.81
2023-05-10T03:19:28.944Z,97320.38
2023-05-10T03:22:08.294Z,97319.63
2023-05-10T03:24:43.591Z,97321.19
2023-05-10T03:27:15.893Z,97329.13
2023-05-10T03:29:48.730Z,97323.81
2023-05-10T03:32:19.732Z,97325.78
2023-05-10T03:34:50.560Z,97339.09
2023-05-10T03:37:23.929Z,97328.50
2023-05-10T03:39:54.709Z,97332.88
2023-05-10T03:42:25.498Z,97334.25
2023-05-10T03:44:56.242Z,97340.47
2023-05-10T03:47:27.298Z,97337.91
2023-05-10T03:49:58.267Z,97329.34
2023-05-10T03:52:31.856Z,97322.91
2023-05-10T03:55:04.256Z,97317.69
2023-05-10T03:57:35.140Z,97320.34
2023-05-10T04:00:06.684Z,97320.63
2023-05-10T04:02:46.530Z,97330.41
2023-05-10T04:05:22.551Z,97333.94
2023-05-10T04:07:58.663Z,97335.53
2023-05-10T04:10:29.467Z,97338.41
2023-05-10T04:13:00.210Z,97324.31
2023-05-10T04:15:30.959Z,97343.16
2023-05-10T04:18:01.890Z,97329.53
2023-05-10T04:20:32.911Z,97317.13
2023-05-10T04:23:06.260Z,97334.09
2023-05-10T04:25:39.181Z,97327.19
2023-05-10T04:28:10.058Z,97336.72
2023-05-10T04:30:41.796Z,97339.94
2023-05-10T04:33:13.090Z,97336.91
2023-05-10T04:35:43.962Z,97339.13
2023-05-10T04:38:17.339Z,97335.22
2023-05-10T04:40:48.068Z,97338.56
2023-05-10T04:43:18.910Z,97342.31
2023-05-10T04:45:49.876Z,97334.88
2023-05-10T04:48:20.692Z,97335.41
2023-05-10T04:50:51.633Z,97338.59
2023-05-10T04:53:25.081Z,97334.97
2023-05-10T04:55:56.004Z,97333.19
2023-05-10T04:58:27.303Z,97333.22
2023-05-10T05:00:58.148Z,97327.88
2023-05-10T05:03:29.002Z,97335.88
2023-05-10T05:06:01.028Z,97333.06
2023-05-10T05:08:34.831Z,97336.38
2023-05-10T05:11:05.791Z,97330.94
2023-05-10T05:13:36.527Z,97333.25
2023-05-10T05:16:08.176Z,97325.78
2023-05-10T05:18:39.093Z,97333.25
2023-05-10T05:21:18.210Z,97336.53
2023-05-10T05:23:51.636Z,97332.03
2023-05-10T05:26:22.619Z,97329.53
2023-05-10T05:28:55.851Z,97329.84
2023-05-10T05:31:26.689Z,97326.50
2023-05-10T05:33:57.361Z,97328.66
2023-05-10T05:36:28.097Z,97328.81
2023-05-10T05:39:01.441Z,97331.78
2023-05-10T05:41:32.331Z,97325.09
2023-05-10T05:44:03.297Z,97324.09
2023-05-10T05:46:33.924Z,97333.56
2023-05-10T05:49:04.570Z,97337.72
2023-05-10T05:51:36.857Z,97337.03
2023-05-10T05:54:10.256Z,97338.00
2023-05-10T05:56:41.058Z,97332.81
2023-05-10T05:59:11.762Z,97345.06
2023-05-10T06:01:42.544Z,97344.22
2023-05-10T06:04:14.109Z,97343.50
2023-05-10T06:06:44.897Z,97351.81
2023-05-10T06:09:18.458Z,97343.31
2023-05-10T06:11:49.112Z,97345.25
2023-05-10T06:14:19.923Z,97345.72
2023-05-10T06:16:51.521Z,97351.56
2023-05-10T06:19:22.263Z,97348.34
2023-05-10T06:21:53.895Z,97348.63
2023-05-10T06:24:28.510Z,97350.78
2023-05-10T06:27:01.489Z,97355.56
2023-05-10T06:29:32.542Z,97346.22
2023-05-10T06:32:03.672Z,97357.88
2023-05-10T06:34:34.590Z,97355.78
2023-05-10T06:37:05.384Z,97360.88
2023-05-10T06:39:39.190Z,97353.72
2023-05-10T06:42:09.925Z,97363.53
2023-05-10T06:44:40.751Z,97361.81
2023-05-10T06:47:11.559Z,97358.41
2023-05-10T06:49:42.394Z,97353.75
2023-05-10T06:52:13.576Z,97358.78
2023-05-10T06:54:47.083Z,97363.59
2023-05-10T06:57:30.468Z,97363.56
2023-05-10T07:00:05.335Z,97366.34
2023-05-10T07:02:37.696Z,97359.28
2023-05-10T07:05:09.282Z,97357.78
2023-05-10T07:07:40.113Z,97358.66
2023-05-10T07:10:14.718Z,97363.03
2023-05-10T07:12:45.710Z,97359.41
2023-05-10T07:15:17.639Z,97359.16
2023-05-10T07:17:49.608Z,97351.06
2023-05-10T07:20:20.781Z,97359.31
2023-05-10T07:22:51.486Z,97357.22
2023-05-10T07:25:25.567Z,97356.06
2023-05-10T07:27:56.434Z,97362.34
2023-05-10T07:30:27.819Z,97364.16
2023-05-10T07:32:58.573Z,97369.16
2023-05-10T07:35:29.588Z,97372.00
2023-05-10T07:38:00.259Z,97374.38
2023-05-10T07:40:34.018Z,97367.53
2023-05-10T07:43:05.125Z,97371.56
2023-05-10T07:45:36.493Z,97374.25
2023-05-10T07:48:07.735Z,97376.28
2023-05-10T07:50:38.687Z,97362.66
2023-05-10T07:53:09.445Z,97367.19
2023-05-10T07:55:43.301Z,97360.56
2023-05-10T07:58:14.026Z,97367.31
2023-05-10T08:00:44.864Z,97359.28
2023-05-10T08:03:15.828Z,97372.16
2023-05-10T08:05:46.961Z,97360.63
2023-05-10T08:08:17.645Z,97359.03
2023-05-10T08:10:51.297Z,97360.16
2023-05-10T08:13:22.024Z,97365.97
2023-05-10T08:15:54.407Z,97361.16
2023-05-10T08:18:25.292Z,97361.34
2023-05-10T08:20:56.129Z,97360.22
2023-05-10T08:23:27.301Z,97360.72
2023-05-10T08:26:00.832Z,97366.28
2023-05-10T08:28:31.771Z,97361.31
2023-05-10T08:31:02.517Z,97365.16
2023-05-10T08:33:33.387Z,97366.59
2023-05-10T08:36:04.160Z,97353.50
2023-05-10T08:38:35.029Z,97354.47
2023-05-10T08:41:10.230Z,97347.44
2023-05-10T08:43:42.945Z,97337.44
2023-05-10T08:46:14.759Z,97336.97
2023-05-10T08:48:46.673Z,97335.31
2023-05-10T08:51:19.053Z,97328.72
2023-05-10T08:53:50.480Z,97335.47
2023-05-10T08:56:25.046Z,97335.41
2023-05-10T08:58:56.399Z,97337.34
2023-05-10T09:01:27.804Z,97338.53
2023-05-10T09:03:59.187Z,97338.38
2023-05-10T09:06:30.265Z,97343.75
2023-05-10T09:09:01.318Z,97336.97
2023-05-10T09:11:35.295Z,97332.31
2023-05-10T09:14:06.713Z,97329.44
2023-05-10T09:16:37.439Z,97335.97
2023-05-10T09:19:08.562Z,97339.47
2023-05-10T09:21:40.861Z,97333.75
2023-05-10T09:24:12.638Z,97337.25
2023-05-10T09:26:53.147Z,97335.94
2023-05-10T09:29:23.804Z,97333.13
2023-05-10T09:31:56.142Z,97332.81
2023-05-10T09:34:36.129Z,97329.94
2023-05-10T09:37:07.614Z,97329.84
2023-05-10T09:39:40.016Z,97320.72
2023-05-10T09:42:14.558Z,97326.38
2023-05-10T09:44:47.574Z,97328.50
2023-05-10T09:47:22.078Z,97326.91
2023-05-10T09:49:54.414Z,97328.31
2023-05-10T09:52:25.175Z,97316.81
2023-05-10T09:54:58.537Z,97324.00
2023-05-10T09:57:33.839Z,97323.22
2023-05-10T10:00:07.214Z,97317.97
2023-05-10T10:02:45.045Z,97312.16
2023-05-10T10:05:16.519Z,97315.94
2023-05-10T10:07:47.557Z,97311.84
2023-05-10T10:10:18.377Z,97305.41
2023-05-10T10:12:53.047Z,97311.44
2023-05-10T10:15:24.879Z,97304.75
2023-05-10T10:17:57.195Z,97298.91
2023-05-10T10:20:28.361Z,97294.31
2023-05-10T10:22:59.096Z,97296.28
2023-05-10T10:25:30.215Z,97303.69
2023-05-10T10:28:29.213Z,97289.84
2023-05-10T10:31:05.565Z,97289.53
2023-05-10T10:33:55.698Z,97293.81
2023-05-10T10:36:28.401Z,97288.91
2023-05-10T10:39:05.622Z,97292.47
2023-05-10T10:41:38.434Z,97288.03
2023-05-10T10:44:33.266Z,97291.75
2023-05-10T10:47:10.313Z,97292.53
2023-05-10T10:49:52.971Z,97305.81
2023-05-10T10:52:34.317Z,97295.88
2023-05-10T10:55:08.531Z,97297.66
2023-05-10T10:57:48.800Z,97290.59
2023-05-10T11:00:33.277Z,97300.69
2023-05-10T11:03:08.652Z,97303.66
2023-05-10T11:05:41.945Z,97298.66
2023-05-10T11:08:18.494Z,97292.03
2023-05-10T11:11:08.437Z,97302.84
2023-05-10T11:13:43.212Z,97286.00
2023-05-10T11:16:25.100Z,97299.91
2023-05-10T11:19:03.380Z,97288.78
2023-05-10T11:21:34.990Z,97281.75
2023-05-10T11:24:16.843Z,97289.00
2023-05-10T11:26:47.628Z,97301.94
2023-05-10T11:29:18.351Z,97292.66
2023-05-10T11:31:52.712Z,97293.94
2023-05-10T11:37:28.388Z,97285.03
2023-05-10T11:39:59.397Z,97299.06
2023-05-10T11:42:31.678Z,97293.59
2023-05-10T11:45:02.970Z,97297.13
2023-05-10T11:47:42.672Z,97284.31
2023-05-10T11:50:16.008Z,97291.91
2023-05-10T11:52:46.909Z,97280.34
2023-05-10T11:55:18.054Z,97274.94
2023-05-10T11:57:50.203Z,97274.91
2023-05-10T12:00:21.367Z,97266.53
2023-05-10T12:02:55.118Z,97280.50
2023-05-10T12:05:26.434Z,97259.28
2023-05-10T12:07:57.208Z,97252.69
2023-05-10T12:10:31.198Z,97265.22
2023-05-10T12:13:01.882Z,97266.91
2023-05-10T12:15:32.702Z,97270.66
2023-05-10T12:18:06.805Z,97241.00
2023-05-10T12:20:37.621Z,97260.41
2023-05-10T12:23:08.819Z,97266.78
2023-05-10T12:25:41.582Z,97269.34
2023-05-10T12:28:13.714Z,97267.16
2023-05-10T12:30:44.936Z,97267.00
2023-05-10T12:33:19.545Z,97265.78
2023-05-10T12:35:52.263Z,97261.66
2023-05-10T12:38:31.104Z,97227.41
2023-05-10T12:41:03.930Z,97257.69
2023-05-10T12:43:35.219Z,97249.84
2023-05-10T12:46:10.125Z,97253.72
2023-05-10T12:48:44.863Z,97256.22
2023-05-10T12:51:18.441Z,97250.19
2023-05-10T12:53:49.767Z,97249.84
2023-05-10T12:56:20.514Z,97243.91
2023-05-10T12:58:51.554Z,97243.75
2023-05-10T13:01:22.453Z,97236.16
2023-05-10T13:03:55.770Z,97229.78
2023-05-10T13:06:26.689Z,97229.84
2023-05-10T13:08:58.889Z,97234.22
2023-05-10T13:11:29.740Z,97233.84
2023-05-10T13:14:00.430Z,97230.31
2023-05-10T13:16:31.915Z,97230.31
2023-05-10T13:19:05.441Z,97225.75
2023-05-10T13:21:36.370Z,97221.81
2023-05-10T13:24:07.380Z,97221.59
2023-05-10T13:26:38.193Z,97226.13
2023-05-10T13:29:08.979Z,97215.81
2023-05-10T13:31:40.036Z,97209.44
2023-05-10T13:34:13.496Z,97204.28
2023-05-10T13:36:44.273Z,97198.88
2023-05-10T13:39:15.055Z,97198.88
2023-05-10T13:41:45.916Z,97193.06
2023-05-10T13:44:17.541Z,97204.66
2023-05-10T13:46:48.578Z,97191.81
2023-05-10T13:49:22.824Z,97192.81
2023-05-10T13:51:53.792Z,97193.41
2023-05-10T13:54:30.774Z,97197.34
2023-05-10T13:57:01.558Z,97187.22
2023-05-10T13:59:33.346Z,97192.25
2023-05-10T14:02:04.531Z,97192.06
2023-05-10T14:04:38.461Z,97195.41
2023-05-10T14:07:10.358Z,97191.56
2023-05-10T14:09:44.354Z,97188.31
2023-05-10T14:12:15.854Z,97186.47
2023-05-10T14:14:46.633Z,97183.00
2023-05-10T14:17:17.486Z,97188.78
2023-05-10T14:19:50.775Z,97189.63
2023-05-10T14:22:21.892Z,97192.53
2023-05-10T14:24:52.653Z,97199.56
2023-05-10T14:27:23.480Z,97204.13
2023-05-10T14:29:54.546Z,97203.28
2023-05-10T14:32:25.420Z,97197.91
2023-05-10T14:34:58.848Z,97195.44
2023-05-10T14:37:29.580Z,97194.84
2023-05-10T14:40:00.328Z,97192.97
2023-05-10T14:42:31.078Z,97196.28
2023-05-10T14:45:01.815Z,97198.13
2023-05-10T14:47:36.185Z,97193.59
2023-05-10T14:50:12.207Z,97191.94
2023-05-10T14:52:47.634Z,97198.34
2023-05-10T14:55:19.050Z,97200.00
2023-05-10T14:57:51.898Z,97203.72
2023-05-10T15:00:23.731Z,97195.06
2023-05-10T15:02:55.084Z,97205.22
2023-05-10T15:05:29.088Z,97206.22
2023-05-10T15:07:59.969Z,97204.38
2023-05-10T15:10:32.081Z,97206.22
2023-05-10T15:13:04.933Z,97214.31
2023-05-10T15:15:35.663Z,97208.72
2023-05-10T15:18:06.982Z,97201.47
2023-05-10T15:20:40.419Z,97199.59
2023-05-10T15:23:11.254Z,97207.72
2023-05-10T15:25:42.120Z,97210.03
2023-05-10T15:28:12.836Z,97209.47
2023-05-10T15:30:43.546Z,97206.41
2023-05-10T15:33:14.444Z,97207.06
2023-05-10T15:35:47.934Z,97208.94
2023-05-10T15:38:19.047Z,97212.72
2023-05-10T15:40:49.884Z,97200.34
2023-05-10T15:43:20.758Z,97203.03
2023-05-10T15:45:51.767Z,97200.75
2023-05-10T15:48:22.618Z,97200.56
2023-05-10T15:50:56.187Z,97185.91
2023-05-10T15:53:27.284Z,97202.63
2023-05-10T15:55:58.286Z,97211.91
2023-05-10T15:58:29.134Z,97203.66
2023-05-10T16:01:00.351Z,97215.25
2023-05-10T16:03:31.462Z,97216.06
2023-05-10T16:06:04.948Z,97217.94
2023-05-10T16:08:36.212Z,97214.63
2023-05-10T16:11:07.201Z,97220.44
2023-05-10T16:13:38.468Z,97209.91
2023-05-10T16:16:10.187Z,97221.88
2023-05-10T16:18:41.543Z,97221.44
2023-05-10T16:21:15.020Z,97215.47
2023-05-10T16:23:46.823Z,97215.66
2023-05-10T16:26:17.826Z,97221.03
2023-05-10T16:28:48.699Z,97221.44
2023-05-10T16:31:20.376Z,97231.78
2023-05-10T16:33:51.301Z,97232.16
2023-05-10T16:36:24.610Z,97230.13
2023-05-10T16:38:55.778Z,97221.44
2023-05-10T16:41:26.755Z,97231.34
2023-05-10T16:43:58.064Z,97222.66
2023-05-10T16:46:28.893Z,97223.91
2023-05-10T16:49:00.500Z,97221.66
2023-05-10T16:51:33.831Z,97215.03
2023-05-10T16:54:04.592Z,97219.75
2023-05-10T16:56:35.289Z,97218.94
2023-05-10T16:59:06.211Z,97218.94
2023-05-10T17:01:37.478Z,97206.72
2023-05-10T17:04:08.573Z,97218.28
2023-05-10T17:06:42.108Z,97217.88
2023-05-10T17:09:13.074Z,97224.66
2023-05-10T17:11:43.845Z,97207.31
2023-05-10T17:14:14.719Z,97216.78
2023-05-10T17:16:45.665Z,97217.19
2023-05-10T17:19:17.137Z,97214.91
2023-05-10T17:21:50.580Z,97228.28
2023-05-10T17:24:21.530Z,97219.16
2023-05-10T17:26:52.398Z,97216.25
2023-05-10T17:29:23.374Z,97228.59
2023-05-10T17:31:54.117Z,97230.88
2023-05-10T17:34:24.918Z,97233.47
2023-05-10T17:36:58.377Z,97232.09
2023-05-10T17:39:29.201Z,97237.47
2023-05-10T17:42:00.048Z,97238.84
2023-05-10T17:44:30.807Z,97244.25
2023-05-10T17:47:01.639Z,97245.16
2023-05-10T17:49:32.494Z,97246.53
2023-05-10T17:52:06.017Z,97254.19
2023-05-10T17:54:36.948Z,97253.63
2023-05-10T17:57:08.016Z,97265.63
2023-05-10T17:59:39.095Z,97255.66
2023-05-10T18:02:10.295Z,97256.34
2023-05-10T18:04:43.217Z,97265.50
2023-05-10T18:07:16.867Z,97259.50
2023-05-10T18:09:47.648Z,97266.81
2023-05-10T18:12:18.309Z,97272.78
2023-05-10T18:14:49.032Z,97270.28
2023-05-10T18:17:19.820Z,97282.09
2023-05-10T18:19:50.577Z,97277.66
2023-05-10T18:22:24.077Z,97288.03
2023-05-10T18:24:54.867Z,97290.38
2023-05-10T18:27:25.777Z,97292.03
2023-05-10T18:29:56.724Z,97297.56
2023-05-10T18:32:28.346Z,97303.69
2023-05-10T18:34:59.530Z,97303.56
2023-05-10T18:37:33.694Z,97306.72
2023-05-10T18:40:05.389Z,97318.22
2023-05-10T18:42:36.450Z,97310.78
2023-05-10T18:45:08.227Z,97315.63
2023-05-10T18:47:39.095Z,97319.25
2023-05-10T18:50:11.429Z,97327.63
2023-05-10T18:52:44.931Z,97321.50
2023-05-10T18:55:17.408Z,97323.47
2023-05-10T18:57:48.375Z,97322.06
2023-05-10T19:00:20.694Z,97324.56
2023-05-10T19:02:51.543Z,97326.84
2023-05-10T19:05:27.555Z,97325.00
2023-05-10T19:08:01.069Z,97325.44
2023-05-10T19:10:31.945Z,97320.94
2023-05-10T19:13:02.776Z,97320.94
2023-05-10T19:15:33.694Z,97327.09
2023-05-10T19:18:04.869Z,97312.09
2023-05-10T19:20:37.822Z,97317.00
2023-05-10T19:23:11.942Z,97310.84
2023-05-10T19:25:42.874Z,97317.59
2023-05-10T19:28:13.732Z,97318.41
2023-05-10T19:30:44.681Z,97321.06
2023-05-10T19:33:15.564Z,97305.03
2023-05-10T19:35:46.489Z,97316.38
2023-05-10T19:38:20.281Z,97308.38
2023-05-10T19:40:51.098Z,97314.81
2023-05-10T19:43:21.897Z,97307.84
2023-05-10T19:45:52.909Z,97304.41
2023-05-10T19:48:23.724Z,97295.59
2023-05-10T19:50:54.595Z,97288.66
2023-05-10T19:53:28.128Z,97291.97
2023-05-10T19:55:59.398Z,97291.69
2023-05-10T19:58:30.137Z,97289.66
2023-05-10T20:01:01.115Z,97285.25
2023-05-10T20:03:33.885Z,97296.78
2023-05-10T20:06:05.007Z,97290.50
2023-05-10T20:08:38.297Z,97295.00
2023-05-10T20:11:09.175Z,97293.50
2023-05-10T20:13:39.932Z,97289.84
2023-05-10T20:16:10.825Z,97286.53
2023-05-10T20:18:41.933Z,97285.50
2023-05-10T20:21:12.782Z,97280.56
2023-05-10T20:23:46.908Z,97278.88
2023-05-10T20:26:17.925Z,97275.56
2023-05-10T20:28:48.692Z,97283.75
2023-05-10T20:31:19.623Z,97293.31
2023-05-10T20:33:50.427Z,97291.84
2023-05-10T20:36:23.207Z,97282.38
2023-05-10T20:38:58.877Z,97292.66
2023-05-10T20:41:30.392Z,97297.31
2023-05-10T20:44:01.232Z,97298.50
2023-05-10T20:46:32.302Z,97293.66
2023-05-10T20:49:04.220Z,97303.94
2023-05-10T20:51:35.369Z,97311.56
2023-05-10T20:54:08.784Z,97309.56
2023-05-10T20:56:39.603Z,97309.25
2023-05-10T20:59:10.354Z,97312.22
2023-05-10T21:01:41.232Z,97309.91
2023-05-10T21:04:12.153Z,97311.56
2023-05-10T21:06:43.049Z,97317.06
2023-05-10T21:09:17.000Z,97302.63
2023-05-10T21:11:47.990Z,97313.09
2023-05-10T21:14:19.391Z,97310.78
2023-05-10T21:16:51.465Z,97311.63
2023-05-10T21:19:25.571Z,97313.94
2023-05-10T21:21:59.394Z,97318.44
2023-05-10T21:24:35.311Z,97311.63
2023-05-10T21:27:07.874Z,97319.44
2023-05-10T21:29:38.813Z,97322.25
2023-05-10T21:32:09.944Z,97313.63
2023-05-10T21:34:40.793Z,97310.44
2023-05-10T21:37:11.626Z,97321.22
2023-05-10T21:39:45.070Z,97323.72
2023-05-10T21:42:15.894Z,97317.91
2023-05-10T21:44:46.732Z,97317.06
2023-05-10T21:47:17.571Z,97327.91
2023-05-10T21:49:48.517Z,97325.41
2023-05-10T21:52:19.337Z,97315.56
2023-05-10T21:54:52.753Z,97321.06
2023-05-10T21:57:23.735Z,97313.25
2023-05-10T21:59:54.439Z,97315.25
2023-05-10T22:02:25.526Z,97317.25
2023-05-10T22:04:56.580Z,97309.44
2023-05-10T22:07:27.496Z,97305.59
2023-05-10T22:10:00.852Z,97310.25
2023-05-10T22:12:32.223Z,97304.25
2023-05-10T22:17:37.238Z,97306.72
2023-05-10T22:20:09.317Z,97307.88
2023-05-10T22:22:40.123Z,97300.22
2023-05-10T22:25:13.743Z,97296.06
2023-05-10T22:27:44.582Z,97296.41
2023-05-10T22:30:15.983Z,97300.41
2023-05-10T22:32:47.029Z,97296.09
2023-05-10T22:35:17.872Z,97291.91
2023-05-10T22:37:48.749Z,97299.25
2023-05-10T22:40:22.568Z,97289.66
2023-05-10T22:42:53.335Z,97299.13
2023-05-10T22:45:24.431Z,97296.09
2023-05-10T22:47:55.390Z,97291.91
2023-05-10T22:50:26.308Z,97288.19
2023-05-10T22:52:57.089Z,97286.81
2023-05-10T22:55:30.531Z,97287.81
2023-05-10T22:58:01.532Z,97288.81
2023-05-10T23:00:32.346Z,97289.97
2023-05-10T23:03:03.360Z,97280.81
2023-05-10T23:05:34.197Z,97286.50
2023-05-10T23:08:05.022Z,97287.94
2023-05-10T23:10:38.821Z,97287.28
2023-05-10T23:13:09.756Z,97285.25
2023-05-10T23:15:40.573Z,97279.94
2023-05-10T23:18:11.501Z,97288.44
2023-05-10T23:20:44.146Z,97273.16
2023-05-10T23:23:14.978Z,97270.03
2023-05-10T23:25:48.641Z,97279.69
2023-05-10T23:28:19.671Z,97276.38
2023-05-10T23:30:50.445Z,97280.22
2023-05-10T23:33:21.336Z,97268.41
2023-05-10T23:35:52.102Z,97269.09
2023-05-10T23:38:23.125Z,97264.75
2023-05-10T23:40:56.527Z,97268.41
2023-05-10T23:43:27.379Z,97264.38
2023-05-10T23:45:58.818Z,97252.41
2023-05-10T23:48:29.684Z,97252.06
2023-05-10T23:51:00.416Z,97250.09
2023-05-10T23:53:31.467Z,97244.78
2023-05-10T23:56:05.233Z,97250.25
2023-05-10T23:58:36.085Z,97247.75
